Mercer, WI (54547)

5:27 AM CDT on August 30, 2015 (GMT -0500)
Pine Lake | | Change Station
CLOSE
Current Station
Personal Weather Station
Location: Hurley, WI
Elevation: 1604 ft
Nearby Weather Stations

Elev 1604 ft 46.25 °N, 90.13 °W | Updated 8 seconds ago

Mostly Cloudy
Mostly Cloudy
61.9 °F
Feels Like 61.9 °F
N
12.7
Wind Variable Wind from South
Gusts 12.7 mph

Today
High -- | Low -- °F
--% Chance of Precip.
Yesterday
High -- | Low -- °F
Precip. -- in
6:17 AM 7:43 PM
Full, 99% visible
Pressure 30.04 in
Visibility 10.0 miles
Clouds Overcast 500 ft
Dew Point 62 °F
Humidity 99%
Rainfall 0.00 in
Snow Depth Not available.
UV 0 out of 12
Pollen 9.20 out of 12
Air Quality Not available.
Flu Activity Not available.
METAR KD25 301015Z AUTO 22008KT 10SM OVC005 16/16 A3004 RMK AO2 T01560156
Pressure 30.04 in
Visibility 10.0 miles
Clouds Overcast 500 ft
Dew Point 62 °F
Humidity 99%
Rainfall 0.00 in
Snow Depth Not available.
UV 0 out of 12
Pollen 9.20 out of 12
Air Quality Not available.
Flu Activity Not available.
METAR KD25 301015Z AUTO 22008KT 10SM OVC005 16/16 A3004 RMK AO2 T01560156

10-Day Weather Forecast

×

Almanac

Astronomy

Aug. 30, 2015 Rise Set
Actual Time
Civil Twilight
Nautical Twilight
Astronomical Twilight
Moon
Length of Visible Light
Length of Day
Tomorrow will be .
, % of the Moon is Illuminated

Today's Extremes

State Highs State Lows

Community

WunderPhotos

Upload Photos

1,850,923 photos uploaded!

WunderBlogs® & News

Nearby

Air Quality

  Air Quality AQ Index Pollutant
Not available.

Snow Depth

Station Depth Elevation

Earthquake Activity

City Distance Mag. Time & Date
Minimum magnitude displayed is 2.5.

Coastal Water Temperatures

Place Temperature

Stations

Nearby Weather Stations

Station Location Temp. Windchill Dew Point Humidity Wind Precip. Elev Updated Type